Rainbow Lake, NY (12976)

12:06 PM EST on February 11, 2016 (GMT -0500)
Gabriels | | Change Station
CLOSE
Current Station
Personal Weather Station
Location: Saranac Lake, NY
Elevation: 1729 ft
Nearby Weather Stations

Elev 1729 ft 44.41 °N, 74.15 °W | Updated 1 second ago

Overcast
Overcast
7.0 °F
Feels Like 7 °F
N
0.0
Wind Variable Wind from NNW
Gusts 6.0 mph

Today
High -- | Low -- °F
--% Chance of Precip.
Yesterday
High -- | Low -- °F
Precip. -- in
Pressure 29.76 in
Visibility 7.0 miles
Clouds Few 1500 ft
Mostly Cloudy 2200 ft
Overcast 2700 ft
Windchill 7 °F
Dew Point 3 °F
Humidity 83%
Rainfall 0.00 in
Snow Depth Not available.
7:02 AM 5:19 PM
Waxing Crescent, 13% visible
METAR KSLK 111651Z AUTO 26011G16KT 230V300 7SM FEW015 BKN022 OVC027 M14/M19 A2967 RMK AO2 SLP078 T11391189
Pressure 29.76 in
Visibility 7.0 miles
Clouds Few 1500 ft
Mostly Cloudy 2200 ft
Overcast 2700 ft
Windchill 7 °F
Dew Point 3 °F
Humidity 83%
Rainfall 0.00 in
Snow Depth Not available.
7:02 AM 5:19 PM
Waxing Crescent, 13% visible
METAR KSLK 111651Z AUTO 26011G16KT 230V300 7SM FEW015 BKN022 OVC027 M14/M19 A2967 RMK AO2 SLP078 T11391189

10-Day Weather Forecast

Almanac

Astronomy

Feb. 11, 2016 Rise Set
Actual Time
Civil Twilight
Nautical Twilight
Astronomical Twilight
Moon
Length of Visible Light
Length of Day
Tomorrow will be .
, % of the Moon is Illuminated

Today's Extremes

State Highs State Lows

Community

WunderPhotos

Upload Photos

1,892,102 photos uploaded!

WunderBlog® & News

Nearby

Air Quality

  Air Quality AQ Index Pollutant
Not available.

Snow Depth

Station Depth Elevation

Earthquake Activity

City Distance Mag. Time & Date
Minimum magnitude displayed is 2.5.

Coastal Water Temperatures

Place Temperature

Stations

Nearby Weather Stations

Station Location Temp. Windchill Dew Point Humidity Wind Precip. Elev Updated Type
                   

Watches & Warnings

There are currently no watches in effect.